Time;durP1;ratioP1;P1;durP2;ratioP2;P2;SDS_P1;SDS_P2;PMS_P1;PMS_P2;Temp;Humidity;BMP_temperature;BMP_pressure;BME280_temperature;BME280_humidity;BME280_pressure;Samples;Min_cycle;Max_cycle;Signal;HPM_P1;HPM_P2
2022/05/12 00:00:51;;;;;;;3.00;2.80;;;;;;;;;;4952521;28;20184;-77
2022/05/12 00:03:17;;;;;;;4.80;3.07;;;;;;;;;;4951411;28;20188;-78
2022/05/12 00:05:43;;;;;;;4.47;2.90;;;;;;;;;;4954484;28;20186;-77
2022/05/12 00:08:08;;;;;;;3.13;2.93;;;;;;;;;;4947255;28;20189;-75
2022/05/12 00:10:33;;;;;;;4.47;3.33;;;;;;;;;;4953124;28;20188;-76
2022/05/12 00:12:58;;;;;;;4.33;2.90;;;;;;;;;;4951082;28;20208;-77
2022/05/12 00:15:25;;;;;;;3.60;2.83;;;;;;;;;;4955010;28;20200;-76
2022/05/12 00:17:50;;;;;;;3.00;2.80;;;;;;;;;;4949665;28;20237;-77
2022/05/12 00:20:17;;;;;;;4.87;2.77;;;;;;;;;;4950185;28;20178;-76
2022/05/12 00:22:42;;;;;;;4.90;3.23;;;;;;;;;;4948339;28;20189;-77
2022/05/12 00:25:15;;;;;;;4.57;2.77;;;;;;;;;;4950073;28;20170;-77
2022/05/12 00:27:40;;;;;;;3.10;2.87;;;;;;;;;;4969097;28;20183;-77
2022/05/12 00:30:09;;;;;;;3.10;2.90;;;;;;;;;;4952205;28;20186;-77
2022/05/12 00:32:35;;;;;;;3.17;2.80;;;;;;;;;;4950384;28;20212;-77
2022/05/12 00:35:00;;;;;;;4.97;2.70;;;;;;;;;;4950474;28;20228;-77
2022/05/12 00:37:25;;;;;;;4.17;2.97;;;;;;;;;;4947584;28;20199;-78
2022/05/12 00:39:50;;;;;;;4.80;2.93;;;;;;;;;;4948324;28;20192;-77
2022/05/12 00:42:17;;;;;;;3.97;3.30;;;;;;;;;;4947327;28;20200;-77
2022/05/12 00:44:42;;;;;;;3.77;3.37;;;;;;;;;;4961374;28;20208;-77
2022/05/12 00:47:07;;;;;;;4.50;3.10;;;;;;;;;;4946446;28;20209;-77
2022/05/12 00:49:37;;;;;;;6.10;3.20;;;;;;;;;;4960711;28;20184;-77
2022/05/12 00:52:06;;;;;;;2.87;2.63;;;;;;;;;;4950682;28;20210;-77
2022/05/12 00:54:51;;;;;;;3.40;2.97;;;;;;;;;;4959992;28;20245;-77
2022/05/12 00:57:20;;;;;;;5.43;3.00;;;;;;;;;;4945047;28;20277;-77
2022/05/12 00:59:45;;;;;;;5.63;3.50;;;;;;;;;;4950130;28;20195;-77
2022/05/12 01:02:14;;;;;;;4.43;3.00;;;;;;;;;;4948957;28;20219;-77
2022/05/12 01:04:39;;;;;;;6.67;3.20;;;;;;;;;;4950656;28;20193;-77
2022/05/12 01:07:05;;;;;;;3.97;3.10;;;;;;;;;;4951043;28;20192;-76
2022/05/12 01:09:30;;;;;;;5.20;3.77;;;;;;;;;;4951186;28;20373;-77
2022/05/12 01:11:56;;;;;;;6.68;3.08;;;;;;;;;;4955865;28;20211;-77
2022/05/12 01:14:21;;;;;;;4.03;3.43;;;;;;;;;;4950841;28;20191;-77
2022/05/12 01:16:48;;;;;;;6.47;3.93;;;;;;;;;;4952101;28;20260;-77
2022/05/12 01:19:15;;;;;;;6.13;4.13;;;;;;;;;;4947610;28;20206;-77
2022/05/12 01:21:41;;;;;;;4.43;3.50;;;;;;;;;;4950926;28;20186;-77
2022/05/12 01:24:06;;;;;;;3.50;3.23;;;;;;;;;;4948855;28;20187;-77
2022/05/12 01:26:33;;;;;;;4.80;3.50;;;;;;;;;;4949073;28;20175;-77
2022/05/12 01:29:01;;;;;;;6.60;3.77;;;;;;;;;;4953001;28;20182;-77
2022/05/12 01:31:27;;;;;;;4.07;3.57;;;;;;;;;;4947952;28;20190;-77
2022/05/12 01:33:52;;;;;;;3.50;3.20;;;;;;;;;;4950721;28;20227;-77
2022/05/12 01:36:19;;;;;;;5.57;3.30;;;;;;;;;;4951457;28;20188;-77
2022/05/12 01:38:44;;;;;;;4.03;3.10;;;;;;;;;;4947646;28;20178;-77
2022/05/12 01:41:09;;;;;;;4.13;3.73;;;;;;;;;;4950184;28;20191;-77
2022/05/12 01:43:34;;;;;;;4.40;3.50;;;;;;;;;;4955543;28;20173;-77
2022/05/12 01:46:00;;;;;;;4.53;4.13;;;;;;;;;;4953811;28;20176;-77
2022/05/12 01:48:26;;;;;;;6.60;3.10;;;;;;;;;;4947626;28;20182;-77
2022/05/12 01:50:52;;;;;;;3.93;3.10;;;;;;;;;;4949235;28;20219;-77
2022/05/12 01:53:17;;;;;;;14.83;3.97;;;;;;;;;;4952570;28;20221;-77
2022/05/12 01:55:48;;;;;;;3.83;3.20;;;;;;;;;;4949684;28;20177;-77
2022/05/12 01:58:14;;;;;;;4.10;3.73;;;;;;;;;;4950606;28;20181;-77
2022/05/12 02:00:39;;;;;;;5.60;3.53;;;;;;;;;;4948103;28;20217;-77
2022/05/12 02:03:05;;;;;;;5.50;3.30;;;;;;;;;;4949892;28;20212;-75
2022/05/12 02:05:31;;;;;;;8.40;3.13;;;;;;;;;;4948706;28;20272;-76
2022/05/12 02:07:57;;;;;;;3.07;2.87;;;;;;;;;;4952650;28;20185;-77
2022/05/12 02:10:24;;;;;;;3.57;2.47;;;;;;;;;;4949915;28;20187;-76
2022/05/12 02:12:49;;;;;;;3.40;2.50;;;;;;;;;;4945977;28;20194;-77
2022/05/12 02:15:15;;;;;;;2.67;2.47;;;;;;;;;;4947177;28;20183;-77
2022/05/12 02:17:40;;;;;;;4.80;3.03;;;;;;;;;;4949390;28;20173;-77
2022/05/12 02:20:06;;;;;;;4.63;2.87;;;;;;;;;;4945885;28;20174;-77
2022/05/12 02:22:31;;;;;;;2.50;1.80;;;;;;;;;;4947618;28;20240;-77
2022/05/12 02:24:56;;;;;;;4.37;2.73;;;;;;;;;;4951471;28;20266;-78
2022/05/12 02:27:21;;;;;;;2.73;2.50;;;;;;;;;;4954665;28;20191;-77
2022/05/12 02:29:47;;;;;;;2.93;2.50;;;;;;;;;;4959210;28;20174;-76
2022/05/12 02:32:12;;;;;;;9.73;2.57;;;;;;;;;;4962568;28;20214;-76
2022/05/12 02:34:37;;;;;;;4.10;2.57;;;;;;;;;;4948240;28;20229;-76
2022/05/12 02:37:03;;;;;;;5.43;2.30;;;;;;;;;;4945087;28;20183;-77
2022/05/12 02:39:35;;;;;;;2.67;2.47;;;;;;;;;;4953033;28;20252;-77
2022/05/12 02:42:00;;;;;;;2.57;2.37;;;;;;;;;;4952208;28;20191;-77
2022/05/12 02:44:25;;;;;;;4.00;2.47;;;;;;;;;;4954657;28;20241;-77
2022/05/12 02:46:50;;;;;;;3.03;2.67;;;;;;;;;;4955457;28;20187;-77
2022/05/12 02:49:16;;;;;;;2.40;2.20;;;;;;;;;;4953598;28;20193;-77
2022/05/12 02:51:43;;;;;;;3.00;2.70;;;;;;;;;;4952777;28;20193;-77
2022/05/12 02:54:09;;;;;;;3.70;2.53;;;;;;;;;;4948260;28;20185;-77
2022/05/12 02:56:34;;;;;;;3.63;2.10;;;;;;;;;;4961830;28;20191;-77
2022/05/12 02:59:00;;;;;;;2.43;2.17;;;;;;;;;;4949650;28;20264;-78
2022/05/12 03:01:27;;;;;;;2.47;1.80;;;;;;;;;;4950997;28;20177;-77
2022/05/12 03:03:53;;;;;;;3.83;2.40;;;;;;;;;;4959179;28;20209;-77
2022/05/12 03:06:18;;;;;;;2.67;2.10;;;;;;;;;;4950993;28;20216;-77
2022/05/12 03:08:44;;;;;;;2.53;2.13;;;;;;;;;;4959374;28;20213;-78
2022/05/12 03:11:09;;;;;;;2.20;1.80;;;;;;;;;;4948734;28;20265;-77
2022/05/12 03:13:35;;;;;;;2.40;2.13;;;;;;;;;;4956171;28;20259;-77
2022/05/12 03:16:00;;;;;;;2.10;1.90;;;;;;;;;;4952466;28;20239;-77
2022/05/12 03:18:25;;;;;;;2.87;1.93;;;;;;;;;;4949833;28;20180;-77
2022/05/12 03:20:50;;;;;;;2.23;2.03;;;;;;;;;;4948623;28;20267;-75
2022/05/12 03:23:17;;;;;;;2.33;1.97;;;;;;;;;;4954172;28;20195;-77
2022/05/12 03:25:43;;;;;;;3.83;2.10;;;;;;;;;;4951042;28;20189;-77
2022/05/12 03:28:09;;;;;;;2.50;2.07;;;;;;;;;;4950337;28;20212;-77
2022/05/12 03:30:34;;;;;;;5.50;2.40;;;;;;;;;;4950898;28;20234;-77
2022/05/12 03:33:00;;;;;;;2.27;1.80;;;;;;;;;;4945451;28;20214;-77
2022/05/12 03:35:25;;;;;;;3.13;2.20;;;;;;;;;;4951436;28;20230;-78
2022/05/12 03:37:50;;;;;;;3.27;2.13;;;;;;;;;;4953157;28;20218;-77
2022/05/12 03:40:17;;;;;;;3.23;2.20;;;;;;;;;;4947614;28;20274;-77
2022/05/12 03:42:42;;;;;;;1.93;1.80;;;;;;;;;;4950640;29;20395;-77
2022/05/12 03:45:08;;;;;;;2.47;2.30;;;;;;;;;;4945194;28;20839;-77
2022/05/12 03:47:34;;;;;;;3.00;2.07;;;;;;;;;;4944546;28;20236;-77
2022/05/12 03:50:03;;;;;;;4.93;2.20;;;;;;;;;;4945792;28;20223;-77
2022/05/12 03:52:28;;;;;;;3.57;2.13;;;;;;;;;;4942206;28;20200;-77
2022/05/12 03:54:54;;;;;;;2.33;2.00;;;;;;;;;;4949999;28;20232;-77
2022/05/12 03:57:20;;;;;;;3.10;2.37;;;;;;;;;;4948955;28;20185;-77
2022/05/12 03:59:48;;;;;;;3.00;2.27;;;;;;;;;;4950841;28;20174;-77
2022/05/12 04:02:13;;;;;;;2.03;1.83;;;;;;;;;;4948266;28;20191;-77
2022/05/12 04:04:40;;;;;;;4.67;2.00;;;;;;;;;;4946549;29;20190;-77
2022/05/12 04:07:05;;;;;;;2.83;2.63;;;;;;;;;;4947953;28;20269;-77
2022/05/12 04:09:31;;;;;;;3.27;2.60;;;;;;;;;;4947277;28;20332;-77
2022/05/12 04:11:56;;;;;;;2.87;2.20;;;;;;;;;;4951567;28;20204;-76
2022/05/12 04:14:21;;;;;;;2.43;1.93;;;;;;;;;;4947576;28;20269;-77
2022/05/12 04:16:47;;;;;;;2.43;2.23;;;;;;;;;;4951121;28;20179;-78
2022/05/12 04:19:12;;;;;;;3.07;2.30;;;;;;;;;;4946806;28;20248;-77
2022/05/12 04:21:38;;;;;;;2.73;2.37;;;;;;;;;;4947314;28;20188;-77
2022/05/12 04:24:05;;;;;;;3.20;2.97;;;;;;;;;;4951686;28;20269;-77
2022/05/12 04:26:32;;;;;;;4.77;3.53;;;;;;;;;;4947685;28;20248;-77
2022/05/12 04:28:57;;;;;;;3.07;2.33;;;;;;;;;;4953676;28;20185;-77
2022/05/12 04:31:22;;;;;;;2.77;2.57;;;;;;;;;;4945667;28;20188;-77
2022/05/12 04:36:31;;;;;;;4.70;2.50;;;;;;;;;;4947711;28;20535;-77
2022/05/12 04:38:59;;;;;;;3.67;2.20;;;;;;;;;;4947339;28;20186;-77
2022/05/12 04:41:25;;;;;;;2.73;2.40;;;;;;;;;;4947964;28;20189;-77
2022/05/12 04:43:50;;;;;;;2.60;2.10;;;;;;;;;;4948723;28;20170;-79
2022/05/12 04:46:15;;;;;;;4.70;2.80;;;;;;;;;;4951795;28;20186;-77
2022/05/12 04:48:40;;;;;;;3.30;2.20;;;;;;;;;;4951892;28;20209;-76
2022/05/12 04:51:05;;;;;;;2.90;2.40;;;;;;;;;;4952250;28;20197;-76
2022/05/12 04:53:31;;;;;;;5.70;2.80;;;;;;;;;;4949291;28;20210;-76
2022/05/12 04:55:58;;;;;;;2.87;2.60;;;;;;;;;;4949329;28;20214;-75
2022/05/12 04:58:23;;;;;;;2.60;2.40;;;;;;;;;;4948501;28;20181;-76
2022/05/12 05:00:50;;;;;;;3.33;2.20;;;;;;;;;;4954623;28;20264;-74
2022/05/12 05:03:15;;;;;;;2.43;2.20;;;;;;;;;;4963118;28;20225;-76
2022/05/12 05:05:40;;;;;;;2.43;2.23;;;;;;;;;;4950231;28;20206;-75
2022/05/12 05:08:06;;;;;;;2.70;2.50;;;;;;;;;;4947354;28;20279;-76
2022/05/12 05:10:32;;;;;;;2.67;2.37;;;;;;;;;;4946260;28;20236;-76
2022/05/12 05:12:58;;;;;;;4.63;2.50;;;;;;;;;;4949795;28;20225;-76
2022/05/12 05:15:24;;;;;;;3.00;2.20;;;;;;;;;;4950458;28;20263;-76
2022/05/12 05:17:51;;;;;;;4.77;2.73;;;;;;;;;;4951854;28;20181;-76
2022/05/12 05:20:17;;;;;;;5.97;3.10;;;;;;;;;;4947561;28;20185;-76
2022/05/12 05:22:43;;;;;;;2.80;2.37;;;;;;;;;;4950795;28;20322;-76
2022/05/12 05:25:09;;;;;;;2.93;2.63;;;;;;;;;;4950077;28;20185;-76
2022/05/12 05:27:35;;;;;;;3.13;2.50;;;;;;;;;;4947435;28;20411;-76
2022/05/12 05:30:01;;;;;;;2.63;2.30;;;;;;;;;;4950640;28;20182;-76
2022/05/12 05:32:27;;;;;;;2.50;2.30;;;;;;;;;;4947159;28;20253;-75
2022/05/12 05:34:52;;;;;;;4.17;2.77;;;;;;;;;;4950314;28;20238;-76
2022/05/12 05:37:18;;;;;;;3.60;2.27;;;;;;;;;;4958488;28;20186;-76
2022/05/12 05:39:43;;;;;;;3.10;2.80;;;;;;;;;;4955352;28;20181;-76
2022/05/12 05:42:10;;;;;;;3.10;2.80;;;;;;;;;;4952364;28;20198;-76
2022/05/12 05:44:35;;;;;;;2.70;2.30;;;;;;;;;;4950814;28;20187;-76
2022/05/12 05:47:01;;;;;;;3.13;2.43;;;;;;;;;;4947192;28;21481;-76
2022/05/12 05:49:28;;;;;;;4.30;2.67;;;;;;;;;;4945800;28;20194;-76
2022/05/12 05:54:38;;;;;;;4.27;3.07;;;;;;;;;;4951312;28;20235;-75
2022/05/12 05:57:03;;;;;;;3.20;2.90;;;;;;;;;;4956188;28;20179;-76
2022/05/12 05:59:28;;;;;;;4.23;2.57;;;;;;;;;;4954462;28;20264;-76
2022/05/12 06:01:54;;;;;;;3.43;2.60;;;;;;;;;;4953149;28;20174;-76
2022/05/12 06:04:19;;;;;;;2.63;2.30;;;;;;;;;;4955208;28;20173;-76
2022/05/12 06:06:44;;;;;;;2.43;2.23;;;;;;;;;;4953116;28;20169;-74
2022/05/12 06:09:10;;;;;;;3.07;2.40;;;;;;;;;;4965071;28;20183;-76
2022/05/12 06:11:36;;;;;;;2.80;2.60;;;;;;;;;;4948822;28;20181;-76
2022/05/12 06:14:01;;;;;;;3.83;2.60;;;;;;;;;;4968027;28;20208;-76
2022/05/12 06:16:27;;;;;;;4.60;2.40;;;;;;;;;;4954752;28;20486;-76
2022/05/12 06:18:54;;;;;;;2.87;2.40;;;;;;;;;;4950972;28;20186;-76
2022/05/12 06:21:20;;;;;;;3.63;2.47;;;;;;;;;;4953735;28;20181;-76
2022/05/12 06:23:46;;;;;;;3.57;2.23;;;;;;;;;;4956213;28;20213;-76
2022/05/12 06:26:14;;;;;;;3.43;2.63;;;;;;;;;;4954339;28;20192;-76
2022/05/12 06:28:41;;;;;;;2.10;2.00;;;;;;;;;;4954818;28;20178;-74
2022/05/12 06:31:06;;;;;;;3.40;2.30;;;;;;;;;;4952810;28;20182;-76
2022/05/12 06:33:33;;;;;;;3.00;2.10;;;;;;;;;;4948544;28;20218;-76
2022/05/12 06:35:58;;;;;;;3.10;2.47;;;;;;;;;;4950236;28;20261;-76
2022/05/12 06:38:23;;;;;;;3.93;2.60;;;;;;;;;;4953437;28;20224;-75
2022/05/12 06:40:48;;;;;;;2.40;2.10;;;;;;;;;;4952215;28;20170;-76
2022/05/12 06:43:14;;;;;;;3.67;1.90;;;;;;;;;;4954921;28;20277;-76
2022/05/12 06:45:40;;;;;;;2.43;2.23;;;;;;;;;;4953538;28;20176;-76
2022/05/12 06:48:07;;;;;;;2.60;2.40;;;;;;;;;;4956584;28;20209;-76
2022/05/12 06:50:32;;;;;;;2.60;2.40;;;;;;;;;;4952192;28;20327;-76
2022/05/12 06:52:57;;;;;;;4.07;3.10;;;;;;;;;;4955397;28;20209;-75
2022/05/12 06:55:24;;;;;;;3.00;2.70;;;;;;;;;;4955186;28;20185;-76
2022/05/12 06:57:49;;;;;;;4.10;3.00;;;;;;;;;;4951890;28;20186;-76
2022/05/12 07:00:16;;;;;;;2.97;2.67;;;;;;;;;;4956518;28;20184;-76
2022/05/12 07:02:42;;;;;;;4.03;3.17;;;;;;;;;;4949708;28;20177;-75
2022/05/12 07:05:08;;;;;;;4.47;2.60;;;;;;;;;;4951826;28;20195;-76
2022/05/12 07:07:34;;;;;;;11.13;3.03;;;;;;;;;;4953308;28;20207;-75
2022/05/12 07:10:00;;;;;;;5.70;2.40;;;;;;;;;;4959291;28;20188;-76
2022/05/12 07:12:26;;;;;;;2.60;2.40;;;;;;;;;;4955233;28;20204;-76
2022/05/12 07:14:52;;;;;;;2.63;2.43;;;;;;;;;;4952107;28;20190;-76
2022/05/12 07:17:20;;;;;;;3.00;2.70;;;;;;;;;;4951303;28;20188;-76
2022/05/12 07:19:47;;;;;;;4.10;2.53;;;;;;;;;;4950846;28;20264;-76
2022/05/12 07:27:40;;;;;;;5.53;3.10;;;;;;;;;;4944554;28;20192;-76
2022/05/12 07:30:06;;;;;;;7.17;4.53;;;;;;;;;;4952544;28;20188;-76
2022/05/12 07:32:31;;;;;;;4.03;2.77;;;;;;;;;;4953548;28;20231;-74
2022/05/12 07:34:56;;;;;;;5.67;3.17;;;;;;;;;;4949145;28;20277;-76
2022/05/12 07:37:21;;;;;;;3.07;2.60;;;;;;;;;;4948323;28;20270;-76
2022/05/12 07:39:47;;;;;;;2.83;2.37;;;;;;;;;;4953824;28;20302;-76
2022/05/12 07:42:12;;;;;;;3.93;2.20;;;;;;;;;;4953014;28;20197;-77
2022/05/12 07:44:38;;;;;;;2.90;2.37;;;;;;;;;;4951380;28;20281;-76
2022/05/12 07:47:09;;;;;;;4.67;2.47;;;;;;;;;;4949117;28;20189;-76
2022/05/12 07:49:36;;;;;;;2.70;2.20;;;;;;;;;;4948336;28;20195;-76
2022/05/12 07:52:02;;;;;;;2.40;2.20;;;;;;;;;;4948677;28;20242;-76
2022/05/12 07:54:28;;;;;;;4.17;2.90;;;;;;;;;;4950465;28;20270;-76
2022/05/12 07:56:53;;;;;;;2.73;2.47;;;;;;;;;;4953574;28;20283;-75
2022/05/12 07:59:18;;;;;;;3.50;2.30;;;;;;;;;;4947405;28;20266;-76
2022/05/12 08:01:47;;;;;;;2.80;2.50;;;;;;;;;;4951269;28;20184;-75
2022/05/12 08:04:13;;;;;;;4.40;2.40;;;;;;;;;;4954465;28;20215;-76
2022/05/12 08:06:39;;;;;;;3.13;2.40;;;;;;;;;;4953877;28;20211;-75
2022/05/12 08:09:05;;;;;;;2.40;2.20;;;;;;;;;;4951139;28;20191;-74
2022/05/12 08:11:31;;;;;;;3.40;2.87;;;;;;;;;;4960417;28;20185;-76
2022/05/12 08:13:56;;;;;;;2.50;2.30;;;;;;;;;;4953204;28;20234;-76
2022/05/12 08:16:21;;;;;;;2.70;2.50;;;;;;;;;;4950008;28;20209;-76
2022/05/12 08:18:49;;;;;;;2.30;2.10;;;;;;;;;;4950878;28;20255;-75
2022/05/12 08:21:15;;;;;;;4.33;2.73;;;;;;;;;;4949689;28;20214;-76
2022/05/12 08:23:40;;;;;;;3.00;2.40;;;;;;;;;;4959336;28;20216;-76
2022/05/12 08:26:06;;;;;;;4.27;2.40;;;;;;;;;;4952358;28;20189;-76
2022/05/12 08:28:31;;;;;;;4.80;2.83;;;;;;;;;;4950177;28;20189;-75
2022/05/12 08:30:57;;;;;;;3.53;3.10;;;;;;;;;;4960823;28;20268;-76
2022/05/12 08:33:22;;;;;;;3.00;2.80;;;;;;;;;;4949098;28;20220;-75
2022/05/12 08:35:48;;;;;;;5.20;2.80;;;;;;;;;;4947531;28;20252;-75
2022/05/12 08:38:14;;;;;;;3.50;2.60;;;;;;;;;;4952420;28;20187;-76
2022/05/12 08:40:58;;;;;;;2.83;2.57;;;;;;;;;;4948567;28;20184;-76
2022/05/12 08:43:28;;;;;;;3.93;2.70;;;;;;;;;;4947158;28;20285;-76
2022/05/12 08:45:56;;;;;;;2.83;2.60;;;;;;;;;;4949178;28;20187;-76
2022/05/12 08:48:22;;;;;;;3.17;2.63;;;;;;;;;;4949648;28;20188;-76
2022/05/12 08:50:50;;;;;;;3.23;2.63;;;;;;;;;;4948221;28;20199;-76
2022/05/12 08:53:20;;;;;;;5.23;3.37;;;;;;;;;;4950700;28;20212;-76
2022/05/12 08:55:51;;;;;;;4.10;3.33;;;;;;;;;;4949546;28;20175;-76
2022/05/12 08:58:20;;;;;;;3.47;3.07;;;;;;;;;;4950209;28;20182;-77
2022/05/12 09:00:55;;;;;;;3.67;2.77;;;;;;;;;;4944895;28;20186;-76
2022/05/12 09:03:30;;;;;;;5.17;3.30;;;;;;;;;;4948452;28;20225;-76
2022/05/12 09:06:01;;;;;;;3.97;3.63;;;;;;;;;;4947953;28;20226;-76
2022/05/12 09:08:37;;;;;;;3.73;3.43;;;;;;;;;;4952133;28;20258;-76
2022/05/12 09:11:10;;;;;;;4.97;3.50;;;;;;;;;;4949640;28;20193;-75
2022/05/12 09:13:40;;;;;;;3.73;3.43;;;;;;;;;;4949256;28;20206;-76
2022/05/12 09:16:24;;;;;;;3.40;3.07;;;;;;;;;;4946808;28;20229;-76
2022/05/12 09:18:50;;;;;;;5.70;3.87;;;;;;;;;;4947545;28;20189;-75
2022/05/12 09:21:18;;;;;;;3.83;3.53;;;;;;;;;;4949052;28;20214;-76
2022/05/12 09:23:43;;;;;;;3.87;3.57;;;;;;;;;;4945582;28;20190;-74
2022/05/12 09:26:27;;;;;;;4.40;3.37;;;;;;;;;;4941505;28;20197;-76
2022/05/12 09:28:54;;;;;;;3.83;3.50;;;;;;;;;;4943900;28;20219;-76
2022/05/12 09:31:19;;;;;;;3.50;3.20;;;;;;;;;;4942569;28;20190;-76
2022/05/12 09:33:46;;;;;;;4.70;3.93;;;;;;;;;;4947646;28;20265;-76
2022/05/12 09:36:17;;;;;;;6.47;3.43;;;;;;;;;;4946515;28;20196;-75
2022/05/12 09:38:44;;;;;;;3.83;3.53;;;;;;;;;;4945709;28;20247;-75
2022/05/12 09:41:14;;;;;;;5.13;4.00;;;;;;;;;;4949637;28;20173;-75
2022/05/12 09:43:39;;;;;;;4.13;3.60;;;;;;;;;;4948050;28;20191;-76
2022/05/12 09:46:18;;;;;;;5.00;3.50;;;;;;;;;;4945471;28;20180;-74
2022/05/12 09:48:44;;;;;;;4.30;3.90;;;;;;;;;;4946726;28;20373;-76
2022/05/12 09:51:21;;;;;;;5.80;4.13;;;;;;;;;;4941995;28;20195;-77
2022/05/12 09:53:47;;;;;;;3.80;3.20;;;;;;;;;;4945683;28;20198;-78
2022/05/12 09:56:32;;;;;;;3.87;3.57;;;;;;;;;;4950446;28;20193;-77
2022/05/12 09:59:24;;;;;;;4.67;4.03;;;;;;;;;;4943040;28;20252;-77
2022/05/12 10:01:49;;;;;;;4.53;3.63;;;;;;;;;;4945740;28;20207;-78
2022/05/12 10:09:53;;;;;;;3.97;3.67;;;;;;;;;;4945122;28;20187;-77
2022/05/12 10:12:22;;;;;;;4.07;3.77;;;;;;;;;;4944319;28;20205;-76
2022/05/12 10:14:57;;;;;;;4.30;3.87;;;;;;;;;;4946757;28;20215;-77
2022/05/12 10:17:33;;;;;;;6.17;4.33;;;;;;;;;;4946009;28;21919;-78
2022/05/12 10:20:01;;;;;;;3.67;3.37;;;;;;;;;;4947817;28;20182;-76
2022/05/12 10:22:30;;;;;;;5.00;4.00;;;;;;;;;;4946277;28;20184;-76
2022/05/12 10:24:57;;;;;;;3.70;3.07;;;;;;;;;;4943554;28;20216;-77
2022/05/12 10:27:34;;;;;;;6.23;3.93;;;;;;;;;;4945009;28;20328;-77
2022/05/12 10:30:20;;;;;;;3.90;3.60;;;;;;;;;;4946654;28;20253;-77
2022/05/12 10:33:04;;;;;;;4.50;3.23;;;;;;;;;;4937651;28;20225;-77
2022/05/12 10:35:35;;;;;;;5.07;4.00;;;;;;;;;;4944751;28;20222;-78
2022/05/12 10:38:00;;;;;;;4.17;3.77;;;;;;;;;;4947232;28;20189;-77
2022/05/12 10:40:26;;;;;;;6.23;4.20;;;;;;;;;;4944192;28;20186;-78
2022/05/12 10:42:54;;;;;;;4.40;4.00;;;;;;;;;;4943686;28;20242;-77
2022/05/12 10:45:26;;;;;;;6.03;3.97;;;;;;;;;;4950829;28;20185;-77
2022/05/12 10:48:03;;;;;;;3.77;3.47;;;;;;;;;;4944153;28;20191;-77
2022/05/12 10:51:00;;;;;;;4.17;3.77;;;;;;;;;;4944659;28;20195;-77
2022/05/12 10:53:26;;;;;;;4.60;4.00;;;;;;;;;;4879588;28;20226;-77
2022/05/12 10:55:57;;;;;;;4.50;4.10;;;;;;;;;;4944277;28;20175;-76
2022/05/12 10:58:26;;;;;;;6.43;4.33;;;;;;;;;;4944896;28;20199;-77
2022/05/12 11:00:51;;;;;;;7.60;4.63;;;;;;;;;;4945887;28;20194;-77
2022/05/12 11:03:22;;;;;;;5.50;4.13;;;;;;;;;;4944142;28;20183;-78
2022/05/12 11:05:53;;;;;;;4.60;4.20;;;;;;;;;;4944709;28;21716;-77
2022/05/12 11:08:18;;;;;;;7.03;4.47;;;;;;;;;;4943958;28;20186;-77
2022/05/12 11:10:52;;;;;;;3.90;3.50;;;;;;;;;;4944115;28;20181;-77
2022/05/12 11:13:20;;;;;;;4.20;3.80;;;;;;;;;;4939953;28;20211;-75
2022/05/12 11:15:48;;;;;;;6.93;4.10;;;;;;;;;;4948742;28;20239;-75
2022/05/12 11:18:18;;;;;;;7.23;4.53;;;;;;;;;;4950240;28;20183;-75
2022/05/12 11:20:48;;;;;;;4.18;3.38;;;;;;;;;;4950717;28;20181;-75
2022/05/12 11:23:32;;;;;;;3.93;3.20;;;;;;;;;;4957691;28;20199;-75
2022/05/12 11:26:04;;;;;;;4.33;4.00;;;;;;;;;;4948634;28;20181;-75
2022/05/12 11:31:32;;;;;;;4.33;3.93;;;;;;;;;;4951222;28;20188;-75
2022/05/12 11:33:59;;;;;;;5.65;3.63;;;;;;;;;;4966980;28;20209;-75
2022/05/12 11:36:37;;;;;;;4.40;4.00;;;;;;;;;;4952657;28;20224;-77
2022/05/12 11:39:20;;;;;;;5.72;3.90;;;;;;;;;;4964376;28;20209;-77
2022/05/12 11:41:46;;;;;;;5.47;3.60;;;;;;;;;;4964758;28;20221;-77
2022/05/12 11:44:24;;;;;;;4.07;3.78;;;;;;;;;;4950322;28;20230;-77
2022/05/12 11:47:08;;;;;;;3.97;3.67;;;;;;;;;;4950021;28;20189;-78
2022/05/12 11:49:42;;;;;;;3.65;3.35;;;;;;;;;;4968530;28;20195;-78
2022/05/12 11:52:08;;;;;;;2.55;2.35;;;;;;;;;;4951114;28;20455;-77
2022/05/12 11:54:47;;;;;;;3.40;3.20;;;;;;;;;;4949634;28;20194;-77
2022/05/12 11:57:19;;;;;;;4.53;3.83;;;;;;;;;;4954717;28;20250;-77
2022/05/12 11:59:46;;;;;;;7.75;3.75;;;;;;;;;;4962970;28;20192;-74
2022/05/12 12:02:30;;;;;;;4.15;3.75;;;;;;;;;;4950036;28;20174;-75
2022/05/12 12:04:57;;;;;;;5.20;3.47;;;;;;;;;;4952106;28;20182;-75
2022/05/12 12:07:31;;;;;;;3.50;3.20;;;;;;;;;;4951887;28;20188;-75
2022/05/12 12:10:08;;;;;;;3.88;3.55;;;;;;;;;;4959840;28;20178;-75
2022/05/12 12:12:40;;;;;;;4.60;3.65;;;;;;;;;;4967375;28;20231;-75
2022/05/12 12:15:05;;;;;;;3.67;3.13;;;;;;;;;;4951367;28;20239;-74
2022/05/12 12:17:33;;;;;;;6.05;3.40;;;;;;;;;;4954760;28;20305;-75
2022/05/12 12:20:02;;;;;;;4.43;4.03;;;;;;;;;;4947756;28;20173;-74
2022/05/12 12:22:35;;;;;;;4.55;4.15;;;;;;;;;;4949533;28;20182;-75
2022/05/12 12:25:09;;;;;;;3.92;3.40;;;;;;;;;;4951395;28;20537;-75
2022/05/12 12:27:34;;;;;;;4.00;3.60;;;;;;;;;;4949172;28;20183;-75
2022/05/12 12:30:18;;;;;;;3.95;3.22;;;;;;;;;;4951542;28;20181;-75
2022/05/12 12:32:47;;;;;;;4.10;3.60;;;;;;;;;;4949579;28;20227;-74
2022/05/12 12:35:22;;;;;;;3.75;3.40;;;;;;;;;;4951261;28;20299;-75
2022/05/12 12:37:48;;;;;;;5.10;3.78;;;;;;;;;;4947023;28;20197;-75
2022/05/12 12:40:32;;;;;;;8.20;3.65;;;;;;;;;;4952293;28;20189;-75
2022/05/12 12:42:58;;;;;;;7.22;3.53;;;;;;;;;;4949547;28;20190;-75
2022/05/12 12:45:24;;;;;;;3.72;3.35;;;;;;;;;;4946113;28;20253;-74
2022/05/12 12:47:57;;;;;;;3.88;3.58;;;;;;;;;;4951503;28;20193;-75
2022/05/12 12:50:26;;;;;;;4.68;3.38;;;;;;;;;;4948806;28;20296;-75
2022/05/12 12:52:56;;;;;;;3.65;3.35;;;;;;;;;;4968576;28;20194;-75
2022/05/12 12:58:12;;;;;;;4.28;3.33;;;;;;;;;;4947365;28;20192;-75
2022/05/12 13:00:37;;;;;;;5.07;3.67;;;;;;;;;;4950061;28;20263;-75
2022/05/12 13:03:19;;;;;;;4.57;3.58;;;;;;;;;;4950279;28;20228;-75
2022/05/12 13:05:44;;;;;;;4.45;3.30;;;;;;;;;;4941426;28;20190;-74
2022/05/12 13:08:21;;;;;;;4.07;3.60;;;;;;;;;;4940954;28;20208;-75
2022/05/12 13:10:49;;;;;;;4.28;3.70;;;;;;;;;;4943952;28;20188;-74
2022/05/12 13:13:14;;;;;;;4.80;3.38;;;;;;;;;;4939502;28;20217;-75
2022/05/12 13:15:41;;;;;;;5.43;3.75;;;;;;;;;;4948328;28;20278;-75
2022/05/12 13:18:08;;;;;;;5.10;4.10;;;;;;;;;;4949116;28;20193;-75
2022/05/12 13:20:39;;;;;;;4.32;3.50;;;;;;;;;;4948430;28;20181;-75
2022/05/12 13:23:06;;;;;;;5.00;3.55;;;;;;;;;;4947297;28;20174;-74
2022/05/12 13:25:32;;;;;;;4.10;3.70;;;;;;;;;;4943894;28;20288;-75
2022/05/12 13:27:58;;;;;;;4.10;3.70;;;;;;;;;;4946090;28;20298;-75
2022/05/12 13:30:28;;;;;;;3.75;3.42;;;;;;;;;;4949077;28;20244;-75
2022/05/12 13:32:54;;;;;;;4.65;3.60;;;;;;;;;;4953140;28;20205;-75
2022/05/12 13:35:25;;;;;;;4.25;3.85;;;;;;;;;;4950291;28;20368;-75
2022/05/12 13:38:13;;;;;;;3.35;3.10;;;;;;;;;;4948691;28;20189;-75
2022/05/12 13:40:40;;;;;;;5.45;3.50;;;;;;;;;;4957934;28;20667;-75
2022/05/12 13:43:12;;;;;;;3.47;3.17;;;;;;;;;;4949128;28;20205;-74
2022/05/12 13:45:37;;;;;;;5.38;3.50;;;;;;;;;;4948492;28;20173;-74
2022/05/12 13:48:02;;;;;;;5.03;4.05;;;;;;;;;;4950413;28;20191;-75
2022/05/12 13:50:43;;;;;;;3.58;3.28;;;;;;;;;;4951147;29;20181;-75
2022/05/12 13:53:09;;;;;;;4.90;3.42;;;;;;;;;;4948507;28;20236;-74
2022/05/12 13:55:34;;;;;;;3.80;3.50;;;;;;;;;;4949991;28;20260;-75
2022/05/12 13:58:02;;;;;;;4.75;3.72;;;;;;;;;;4948783;28;20242;-74
2022/05/12 14:00:34;;;;;;;3.95;3.42;;;;;;;;;;4951393;28;20185;-74
2022/05/12 14:03:11;;;;;;;5.70;3.95;;;;;;;;;;4949516;28;20194;-75
2022/05/12 14:05:36;;;;;;;3.92;3.58;;;;;;;;;;4946895;29;20505;-75
2022/05/12 14:08:17;;;;;;;4.13;3.75;;;;;;;;;;4947569;28;20192;-75
2022/05/12 14:10:47;;;;;;;4.63;4.18;;;;;;;;;;4960151;28;20186;-75
2022/05/12 14:21:27;;;;;;;5.85;4.03;;;;;;;;;;4954150;28;20204;-75
2022/05/12 14:23:53;;;;;;;4.10;3.70;;;;;;;;;;4953700;28;20182;-75
2022/05/12 14:26:18;;;;;;;4.97;4.13;;;;;;;;;;4952516;28;20218;-75
2022/05/12 14:28:44;;;;;;;3.95;3.55;;;;;;;;;;4950421;28;20236;-75
2022/05/12 14:31:09;;;;;;;4.57;4.13;;;;;;;;;;4950802;28;20185;-74
2022/05/12 14:33:34;;;;;;;4.35;3.95;;;;;;;;;;4949362;28;20229;-74
2022/05/12 14:36:00;;;;;;;6.25;4.00;;;;;;;;;;4951623;28;20260;-75
2022/05/12 14:38:25;;;;;;;6.55;3.65;;;;;;;;;;4949643;28;20236;-75
2022/05/12 14:40:51;;;;;;;4.68;4.20;;;;;;;;;;4953919;28;20172;-74
2022/05/12 14:43:16;;;;;;;4.57;4.18;;;;;;;;;;4952819;28;20197;-74
2022/05/12 14:45:42;;;;;;;7.32;4.22;;;;;;;;;;4948762;28;20185;-74
2022/05/12 14:48:08;;;;;;;7.53;3.83;;;;;;;;;;4951849;28;20181;-75
2022/05/12 14:50:33;;;;;;;4.80;4.30;;;;;;;;;;4953320;28;20181;-75
2022/05/12 14:52:58;;;;;;;5.82;3.63;;;;;;;;;;4952456;28;20205;-75
2022/05/12 14:55:24;;;;;;;5.72;3.75;;;;;;;;;;4949545;28;20190;-75
2022/05/12 14:57:49;;;;;;;5.70;4.20;;;;;;;;;;4950001;28;20328;-75
2022/05/12 15:00:15;;;;;;;5.13;4.47;;;;;;;;;;4953670;28;20185;-74
2022/05/12 15:02:41;;;;;;;4.35;4.05;;;;;;;;;;4953205;28;20268;-75
2022/05/12 15:05:07;;;;;;;4.07;3.70;;;;;;;;;;4953729;28;20316;-75
2022/05/12 15:07:33;;;;;;;4.30;3.90;;;;;;;;;;4946948;28;20185;-75
2022/05/12 15:09:58;;;;;;;4.10;3.78;;;;;;;;;;4956740;28;20205;-75
2022/05/12 15:12:24;;;;;;;4.43;4.03;;;;;;;;;;4954421;28;20182;-75
2022/05/12 15:14:49;;;;;;;4.60;4.20;;;;;;;;;;4953366;28;20192;-75
2022/05/12 15:17:16;;;;;;;4.30;3.67;;;;;;;;;;4953092;28;20281;-75